EXS7YA LEMH-EGNM
Flight info
| Callsign | EXS7YA |
|---|---|
| Flight time | 2h 17m |
| Altitude | 38000 |
| Route | MEROS DCT LAPIT DCT CHELY DCT LUMAS DCT SOFFY DCT MRM DCT MTL DCT ETREK DCT MADOT DCT MOPEM DCT CACHI DCT AVLON DCT OKRIX DCT BRY DCT CLM DCT KOPOR DCT VESAN DCT RATUK DCT SOVAT L613 SANDY UN601 LESTA N601 EMBOR DCT ADELU DCT UNIGO DCT GAM31 DCT RIMTO |
| Aircraft | B38M/M-SDE1FGHILORVWXY/HB1 |
Departure
| Time | 2026-05-08 17:36 |
|---|---|
| Airport | Menorca Airport (LEMH) |
Arrival
| Time | 2026-05-08 19:54 |
|---|---|
| Airport | Leeds Bradford Airport (EGNM) |
| Time | Latitude | Longitude | Altitude | Speed | Heading |
|---|---|---|---|---|---|
| 2026-05-08 17:00 | 39.86373 | 4.22387 | 304 ft | 0 kts | 98° |
| 2026-05-08 17:17 | 39.86374 | 4.22375 | 304 ft | 3 kts | 98° |
| 2026-05-08 17:17 | 39.86377 | 4.22351 | 304 ft | 3 kts | 98° |
| 2026-05-08 17:17 | 39.86380 | 4.22327 | 304 ft | 3 kts | 73° |
| 2026-05-08 17:17 | 39.86369 | 4.22309 | 304 ft | 1 kts | 12° |
| 2026-05-08 17:20 | 39.86370 | 4.22309 | 304 ft | 0 kts | 12° |
| 2026-05-08 17:20 | 39.86371 | 4.22309 | 304 ft | 0 kts | 9° |
| 2026-05-08 17:26 | 39.86387 | 4.22307 | 306 ft | 3 kts | 356° |
| 2026-05-08 17:26 | 39.86423 | 4.22307 | 308 ft | 6 kts | 4° |
| 2026-05-08 17:27 | 39.86460 | 4.22315 | 306 ft | 5 kts | 10° |
| 2026-05-08 17:27 | 39.86496 | 4.22323 | 305 ft | 5 kts | 5° |
| 2026-05-08 17:27 | 39.86529 | 4.22304 | 307 ft | 6 kts | 307° |
| 2026-05-08 17:27 | 39.86542 | 4.22234 | 307 ft | 10 kts | 281° |
| 2026-05-08 17:28 | 39.86512 | 4.22162 | 307 ft | 11 kts | 189° |
| 2026-05-08 17:28 | 39.86422 | 4.22137 | 307 ft | 15 kts | 191° |
| 2026-05-08 17:28 | 39.86319 | 4.22110 | 304 ft | 14 kts | 179° |
| 2026-05-08 17:28 | 39.86222 | 4.22097 | 302 ft | 15 kts | 190° |
| 2026-05-08 17:29 | 39.86119 | 4.22074 | 302 ft | 15 kts | 189° |
| 2026-05-08 17:29 | 39.86020 | 4.22055 | 302 ft | 15 kts | 189° |
| 2026-05-08 17:29 | 39.85918 | 4.22034 | 301 ft | 15 kts | 189° |
| 2026-05-08 17:29 | 39.85812 | 4.22012 | 299 ft | 16 kts | 189° |
| 2026-05-08 17:30 | 39.85705 | 4.21990 | 297 ft | 15 kts | 189° |
| 2026-05-08 17:30 | 39.85601 | 4.21969 | 297 ft | 15 kts | 189° |
| 2026-05-08 17:30 | 39.85493 | 4.21946 | 297 ft | 15 kts | 189° |
| 2026-05-08 17:30 | 39.85413 | 4.21930 | 293 ft | 8 kts | 189° |
| 2026-05-08 17:31 | 39.85362 | 4.21919 | 294 ft | 8 kts | 189° |
| 2026-05-08 17:31 | 39.85301 | 4.21907 | 292 ft | 10 kts | 189° |
| 2026-05-08 17:31 | 39.85227 | 4.21892 | 293 ft | 12 kts | 189° |
| 2026-05-08 17:31 | 39.85138 | 4.21866 | 293 ft | 12 kts | 212° |
| 2026-05-08 17:32 | 39.85130 | 4.21786 | 294 ft | 6 kts | 278° |
| 2026-05-08 17:32 | 39.85131 | 4.21777 | 293 ft | 0 kts | 279° |
| 2026-05-08 17:34 | 39.85132 | 4.21764 | 291 ft | 4 kts | 278° |
| 2026-05-08 17:34 | 39.85142 | 4.21681 | 289 ft | 9 kts | 280° |
| 2026-05-08 17:35 | 39.85166 | 4.21646 | 291 ft | 1 kts | 347° |
| 2026-05-08 17:35 | 39.85180 | 4.21647 | 293 ft | 0 kts | 7° |
| 2026-05-08 17:35 | 39.85194 | 4.21649 | 292 ft | 8 kts | 8° |
| 2026-05-08 17:35 | 39.85499 | 4.21709 | 299 ft | 83 kts | 9° |
| 2026-05-08 17:36 | 39.86303 | 4.21876 | 302 ft | 148 kts | 9° |
| 2026-05-08 17:36 | 39.87391 | 4.22101 | 838 ft | 157 kts | 13° |
| 2026-05-08 17:36 | 39.88467 | 4.22354 | 1411 ft | 164 kts | 15° |
| 2026-05-08 17:36 | 39.89621 | 4.22665 | 1848 ft | 170 kts | 15° |
| 2026-05-08 17:37 | 39.90807 | 4.22975 | 2115 ft | 182 kts | 15° |
| 2026-05-08 17:37 | 39.92085 | 4.23284 | 2411 ft | 192 kts | 13° |
| 2026-05-08 17:37 | 39.93468 | 4.23603 | 2509 ft | 210 kts | 13° |
| 2026-05-08 17:37 | 39.94930 | 4.23929 | 2777 ft | 222 kts | 11° |
| 2026-05-08 17:38 | 39.96579 | 4.24295 | 3006 ft | 246 kts | 12° |
| 2026-05-08 17:38 | 39.97126 | 4.24420 | 3236 ft | 248 kts | 12° |
| 2026-05-08 17:38 | 40.00161 | 4.25133 | 4013 ft | 275 kts | 11° |
| 2026-05-08 17:38 | 40.02060 | 4.25585 | 4742 ft | 279 kts | 11° |
| 2026-05-08 17:39 | 40.03987 | 4.26029 | 5461 ft | 282 kts | 11° |
| 2026-05-08 17:39 | 40.05918 | 4.26472 | 6143 ft | 288 kts | 10° |
| 2026-05-08 17:39 | 40.07899 | 4.26933 | 6870 ft | 290 kts | 9° |
| 2026-05-08 17:39 | 40.09895 | 4.27398 | 7553 ft | 293 kts | 9° |
| 2026-05-08 17:40 | 40.11913 | 4.27867 | 8246 ft | 296 kts | 8° |
| 2026-05-08 17:40 | 40.13951 | 4.28341 | 8958 ft | 299 kts | 8° |
| 2026-05-08 17:40 | 40.16008 | 4.28820 | 9653 ft | 302 kts | 7° |
| 2026-05-08 17:40 | 40.16705 | 4.28982 | 9895 ft | 303 kts | 7° |
| 2026-05-08 17:41 | 40.20219 | 4.29800 | 10719 ft | 317 kts | 7° |
| 2026-05-08 17:41 | 40.22444 | 4.30317 | 11032 ft | 333 kts | 7° |
| 2026-05-08 17:41 | 40.24774 | 4.30861 | 11377 ft | 346 kts | 7° |
| 2026-05-08 17:41 | 40.27168 | 4.31423 | 11877 ft | 353 kts | 6° |
| 2026-05-08 17:42 | 40.29602 | 4.31994 | 12446 ft | 358 kts | 6° |
| 2026-05-08 17:42 | 40.32070 | 4.32570 | 13031 ft | 362 kts | 6° |
| 2026-05-08 17:42 | 40.34532 | 4.33146 | 13642 ft | 366 kts | 6° |
| 2026-05-08 17:42 | 40.37046 | 4.33736 | 14212 ft | 369 kts | 6° |
| 2026-05-08 17:43 | 40.39591 | 4.34333 | 14781 ft | 372 kts | 6° |
| 2026-05-08 17:43 | 40.42155 | 4.34934 | 15319 ft | 376 kts | 6° |
| 2026-05-08 17:43 | 40.43866 | 4.35336 | 15678 ft | 378 kts | 5° |
| 2026-05-08 17:43 | 40.47352 | 4.36156 | 16397 ft | 382 kts | 5° |
| 2026-05-08 17:44 | 40.49983 | 4.36775 | 16937 ft | 385 kts | 5° |
| 2026-05-08 17:44 | 40.52632 | 4.37398 | 17470 ft | 388 kts | 5° |
| 2026-05-08 17:44 | 40.55297 | 4.38026 | 18012 ft | 391 kts | 5° |
| 2026-05-08 17:44 | 40.57982 | 4.38655 | 18509 ft | 394 kts | 4° |
| 2026-05-08 17:45 | 40.60687 | 4.39280 | 18956 ft | 395 kts | 5° |
| 2026-05-08 17:45 | 40.63375 | 4.39927 | 19387 ft | 399 kts | 5° |
| 2026-05-08 17:45 | 40.66119 | 4.40589 | 19829 ft | 402 kts | 4° |
| 2026-05-08 17:45 | 40.68760 | 4.41212 | 20251 ft | 404 kts | 4° |
| 2026-05-08 17:46 | 40.71540 | 4.41862 | 20688 ft | 407 kts | 4° |
| 2026-05-08 17:46 | 40.74339 | 4.42525 | 21124 ft | 410 kts | 4° |
| 2026-05-08 17:46 | 40.76244 | 4.42980 | 21412 ft | 412 kts | 4° |
| 2026-05-08 17:46 | 40.79070 | 4.43653 | 21838 ft | 415 kts | 4° |
| 2026-05-08 17:47 | 40.81920 | 4.44328 | 22259 ft | 417 kts | 4° |
| 2026-05-08 17:47 | 40.84756 | 4.45001 | 22682 ft | 420 kts | 4° |
| 2026-05-08 17:47 | 40.87644 | 4.45688 | 23093 ft | 423 kts | 4° |
| 2026-05-08 17:47 | 40.89603 | 4.46156 | 23368 ft | 425 kts | 4° |
| 2026-05-08 17:48 | 40.93470 | 4.47085 | 23853 ft | 429 kts | 5° |
| 2026-05-08 17:48 | 40.96416 | 4.47801 | 24185 ft | 431 kts | 5° |
| 2026-05-08 17:48 | 40.99376 | 4.48519 | 24516 ft | 434 kts | 5° |
| 2026-05-08 17:48 | 41.02352 | 4.49237 | 24844 ft | 436 kts | 5° |
| 2026-05-08 17:49 | 41.05344 | 4.49961 | 25179 ft | 439 kts | 5° |
| 2026-05-08 17:49 | 41.08357 | 4.50692 | 25488 ft | 441 kts | 5° |
| 2026-05-08 17:49 | 41.11395 | 4.51433 | 25795 ft | 444 kts | 5° |
| 2026-05-08 17:49 | 41.14441 | 4.52176 | 26105 ft | 446 kts | 6° |
| 2026-05-08 17:50 | 41.17501 | 4.52922 | 26408 ft | 449 kts | 6° |
| 2026-05-08 17:50 | 41.19543 | 4.53420 | 26603 ft | 450 kts | 6° |
| 2026-05-08 17:50 | 41.23685 | 4.54432 | 27005 ft | 453 kts | 6° |
| 2026-05-08 17:50 | 41.26797 | 4.55193 | 27315 ft | 456 kts | 6° |
| 2026-05-08 17:51 | 41.29926 | 4.55960 | 27601 ft | 458 kts | 6° |
| 2026-05-08 17:51 | 41.33066 | 4.56729 | 27891 ft | 461 kts | 6° |
| 2026-05-08 17:51 | 41.36229 | 4.57505 | 28143 ft | 463 kts | 7° |
| 2026-05-08 17:51 | 41.39402 | 4.58285 | 28426 ft | 465 kts | 7° |
| 2026-05-08 17:52 | 41.42553 | 4.59059 | 28690 ft | 467 kts | 7° |
| 2026-05-08 17:52 | 41.45762 | 4.59848 | 28966 ft | 470 kts | 7° |
| 2026-05-08 17:52 | 41.52219 | 4.61440 | 29491 ft | 474 kts | 7° |
| 2026-05-08 17:53 | 41.55478 | 4.62244 | 29742 ft | 477 kts | 7° |
| 2026-05-08 17:53 | 41.57683 | 4.62789 | 29919 ft | 478 kts | 8° |
| 2026-05-08 17:53 | 41.62037 | 4.63865 | 30214 ft | 481 kts | 8° |
| 2026-05-08 17:53 | 41.65340 | 4.64683 | 30425 ft | 483 kts | 7° |
| 2026-05-08 17:54 | 41.68663 | 4.65506 | 30650 ft | 485 kts | 7° |
| 2026-05-08 17:54 | 41.71956 | 4.66324 | 30857 ft | 488 kts | 7° |
| 2026-05-08 17:54 | 41.75242 | 4.67502 | 31069 ft | 492 kts | 15° |
| 2026-05-08 17:54 | 41.78528 | 4.68792 | 31288 ft | 492 kts | 12° |
| 2026-05-08 17:55 | 41.81850 | 4.69962 | 31505 ft | 494 kts | 12° |
| 2026-05-08 17:55 | 41.85164 | 4.71232 | 31731 ft | 496 kts | 14° |
| 2026-05-08 17:55 | 41.88472 | 4.72605 | 31948 ft | 498 kts | 14° |
| 2026-05-08 17:55 | 41.91796 | 4.73944 | 32173 ft | 499 kts | 13° |
| 2026-05-08 17:56 | 41.95141 | 4.75222 | 32404 ft | 500 kts | 13° |
| 2026-05-08 17:56 | 41.98484 | 4.76511 | 32756 ft | 499 kts | 13° |
| 2026-05-08 17:56 | 42.01806 | 4.77839 | 33115 ft | 497 kts | 14° |
| 2026-05-08 17:56 | 42.05116 | 4.79166 | 33460 ft | 496 kts | 13° |
| 2026-05-08 17:57 | 42.08434 | 4.80470 | 33815 ft | 494 kts | 13° |
| 2026-05-08 17:57 | 42.11727 | 4.81757 | 34155 ft | 492 kts | 14° |
| 2026-05-08 17:57 | 42.15013 | 4.83060 | 34442 ft | 491 kts | 14° |
| 2026-05-08 17:57 | 42.18242 | 4.84351 | 34720 ft | 490 kts | 14° |
| 2026-05-08 17:58 | 42.21529 | 4.85656 | 34992 ft | 490 kts | 14° |
| 2026-05-08 17:58 | 42.24797 | 4.86948 | 35261 ft | 489 kts | 14° |
| 2026-05-08 17:58 | 42.26959 | 4.87805 | 35423 ft | 489 kts | 14° |
| 2026-05-08 17:58 | 42.31332 | 4.89550 | 35765 ft | 489 kts | 14° |
| 2026-05-08 17:59 | 42.34593 | 4.90851 | 35999 ft | 489 kts | 14° |
| 2026-05-08 17:59 | 42.37852 | 4.92150 | 36227 ft | 489 kts | 14° |
| 2026-05-08 17:59 | 42.41115 | 4.93452 | 36439 ft | 489 kts | 14° |
| 2026-05-08 17:59 | 42.44385 | 4.94760 | 36643 ft | 490 kts | 14° |
| 2026-05-08 18:00 | 42.47654 | 4.96070 | 36837 ft | 490 kts | 14° |
| 2026-05-08 18:00 | 42.54169 | 4.98680 | 37267 ft | 491 kts | 14° |
| 2026-05-08 18:00 | 42.57447 | 4.99997 | 37473 ft | 491 kts | 14° |
| 2026-05-08 18:01 | 42.60717 | 5.01312 | 37679 ft | 491 kts | 14° |
| 2026-05-08 18:01 | 42.63997 | 5.02632 | 37887 ft | 491 kts | 14° |
| 2026-05-08 18:01 | 42.66168 | 5.03507 | 38019 ft | 490 kts | 14° |
| 2026-05-08 18:01 | 42.70513 | 5.05260 | 38006 ft | 483 kts | 14° |
| 2026-05-08 18:02 | 42.75842 | 5.07413 | 38011 ft | 477 kts | 13° |
| 2026-05-08 18:02 | 42.83256 | 5.10413 | 38018 ft | 474 kts | 14° |
| 2026-05-08 18:03 | 42.89578 | 5.12978 | 38013 ft | 473 kts | 14° |
| 2026-05-08 18:03 | 42.95894 | 5.15546 | 38026 ft | 474 kts | 14° |
| 2026-05-08 18:04 | 43.02036 | 5.18050 | 38027 ft | 474 kts | 14° |
| 2026-05-08 18:04 | 43.08371 | 5.20627 | 38030 ft | 474 kts | 14° |
| 2026-05-08 18:05 | 43.14697 | 5.23204 | 38039 ft | 473 kts | 14° |
| 2026-05-08 18:05 | 43.20974 | 5.25770 | 38043 ft | 473 kts | 14° |
| 2026-05-08 18:06 | 43.27307 | 5.28362 | 38048 ft | 473 kts | 14° |
| 2026-05-08 18:06 | 43.33583 | 5.30937 | 38048 ft | 472 kts | 14° |
| 2026-05-08 18:07 | 43.39936 | 5.32714 | 38107 ft | 462 kts | 349° |
| 2026-05-08 18:07 | 43.43038 | 5.31746 | 38090 ft | 455 kts | 335° |
| 2026-05-08 18:07 | 43.45933 | 5.30027 | 38063 ft | 451 kts | 329° |
| 2026-05-08 18:08 | 43.51581 | 5.26211 | 38070 ft | 454 kts | 333° |
| 2026-05-08 18:08 | 43.55540 | 5.24266 | 38051 ft | 457 kts | 340° |
| 2026-05-08 18:09 | 43.63645 | 5.20904 | 38034 ft | 455 kts | 336° |
| 2026-05-08 18:09 | 43.69631 | 5.18005 | 38033 ft | 456 kts | 338° |
| 2026-05-08 18:10 | 43.75682 | 5.15318 | 38020 ft | 455 kts | 337° |
| 2026-05-08 18:10 | 43.81643 | 5.12511 | 38028 ft | 455 kts | 338° |
| 2026-05-08 18:11 | 43.87671 | 5.09758 | 38022 ft | 455 kts | 337° |
| 2026-05-08 18:11 | 43.93526 | 5.07030 | 38024 ft | 455 kts | 337° |
| 2026-05-08 18:12 | 43.99537 | 5.04248 | 38027 ft | 455 kts | 337° |
| 2026-05-08 18:12 | 44.03511 | 5.02400 | 38024 ft | 454 kts | 337° |
| 2026-05-08 18:13 | 44.11499 | 4.98677 | 38022 ft | 455 kts | 337° |
| 2026-05-08 18:13 | 44.17486 | 4.95881 | 38024 ft | 454 kts | 337° |
| 2026-05-08 18:14 | 44.23489 | 4.93069 | 38028 ft | 456 kts | 338° |
| 2026-05-08 18:14 | 44.29507 | 4.90249 | 38032 ft | 456 kts | 338° |
| 2026-05-08 18:15 | 44.33524 | 4.88360 | 38024 ft | 455 kts | 338° |
| 2026-05-08 18:15 | 44.41510 | 4.84600 | 38017 ft | 455 kts | 338° |
| 2026-05-08 18:16 | 44.47507 | 4.81768 | 38017 ft | 455 kts | 338° |
| 2026-05-08 18:16 | 44.53519 | 4.78924 | 38014 ft | 454 kts | 338° |
| 2026-05-08 18:17 | 44.59690 | 4.77044 | 38013 ft | 455 kts | 348° |
| 2026-05-08 18:17 | 44.65954 | 4.75686 | 38014 ft | 455 kts | 347° |
| 2026-05-08 18:18 | 44.71620 | 4.74413 | 38013 ft | 455 kts | 347° |
| 2026-05-08 18:18 | 44.77877 | 4.73033 | 38000 ft | 456 kts | 347° |
| 2026-05-08 18:19 | 44.84150 | 4.71632 | 38003 ft | 455 kts | 347° |
| 2026-05-08 18:19 | 44.90424 | 4.70234 | 38016 ft | 456 kts | 347° |
| 2026-05-08 18:20 | 44.96637 | 4.68845 | 37997 ft | 454 kts | 347° |
| 2026-05-08 18:20 | 45.02881 | 4.67445 | 38001 ft | 454 kts | 347° |
| 2026-05-08 18:21 | 45.09132 | 4.66042 | 37996 ft | 454 kts | 347° |
| 2026-05-08 18:21 | 45.15365 | 4.64639 | 37990 ft | 453 kts | 347° |
| 2026-05-08 18:22 | 45.21599 | 4.63231 | 37987 ft | 453 kts | 347° |
| 2026-05-08 18:22 | 45.25724 | 4.62285 | 37995 ft | 455 kts | 347° |
| 2026-05-08 18:23 | 45.34085 | 4.60376 | 37981 ft | 454 kts | 347° |
| 2026-05-08 18:23 | 45.40273 | 4.58955 | 37973 ft | 453 kts | 347° |
| 2026-05-08 18:24 | 45.46508 | 4.57524 | 37974 ft | 453 kts | 347° |
| 2026-05-08 18:24 | 45.52729 | 4.56092 | 37971 ft | 451 kts | 347° |
| 2026-05-08 18:25 | 45.58935 | 4.54659 | 37968 ft | 450 kts | 347° |
| 2026-05-08 18:25 | 45.65135 | 4.53226 | 37967 ft | 451 kts | 347° |
| 2026-05-08 18:26 | 45.71330 | 4.51790 | 37976 ft | 450 kts | 347° |
| 2026-05-08 18:26 | 45.77505 | 4.50355 | 37979 ft | 449 kts | 347° |
| 2026-05-08 18:27 | 45.82638 | 4.49160 | 37975 ft | 449 kts | 347° |
| 2026-05-08 18:27 | 45.89847 | 4.47479 | 37976 ft | 449 kts | 347° |
| 2026-05-08 18:28 | 45.95968 | 4.46047 | 37972 ft | 448 kts | 347° |
| 2026-05-08 18:28 | 46.02133 | 4.44602 | 37976 ft | 448 kts | 347° |
| 2026-05-08 18:29 | 46.08304 | 4.43152 | 37982 ft | 448 kts | 347° |
| 2026-05-08 18:29 | 46.14452 | 4.41705 | 37978 ft | 447 kts | 346° |
| 2026-05-08 18:30 | 46.20564 | 4.40262 | 37984 ft | 447 kts | 347° |
| 2026-05-08 18:30 | 46.26712 | 4.38807 | 37988 ft | 448 kts | 347° |
| 2026-05-08 18:31 | 46.32736 | 4.36659 | 37988 ft | 445 kts | 344° |
| 2026-05-08 18:31 | 46.38817 | 4.34877 | 37984 ft | 444 kts | 342° |
| 2026-05-08 18:32 | 46.44781 | 4.32608 | 37982 ft | 445 kts | 342° |
| 2026-05-08 18:32 | 46.50822 | 4.30570 | 37970 ft | 444 kts | 342° |
| 2026-05-08 18:33 | 46.56806 | 4.28422 | 37983 ft | 442 kts | 342° |
| 2026-05-08 18:33 | 46.62793 | 4.26321 | 37983 ft | 442 kts | 342° |
| 2026-05-08 18:34 | 46.68735 | 4.24214 | 37991 ft | 442 kts | 342° |
| 2026-05-08 18:34 | 46.74713 | 4.22091 | 37988 ft | 442 kts | 342° |
| 2026-05-08 18:35 | 46.80694 | 4.19965 | 37992 ft | 442 kts | 342° |
| 2026-05-08 18:35 | 46.86677 | 4.17830 | 37992 ft | 442 kts | 342° |
| 2026-05-08 18:36 | 46.92653 | 4.15696 | 37986 ft | 440 kts | 342° |
| 2026-05-08 18:36 | 46.98603 | 4.13563 | 37992 ft | 440 kts | 342° |
| 2026-05-08 18:37 | 47.04555 | 4.11427 | 37988 ft | 440 kts | 342° |
| 2026-05-08 18:37 | 47.08416 | 4.09579 | 38012 ft | 435 kts | 333° |
| 2026-05-08 18:38 | 47.15950 | 4.05234 | 38003 ft | 436 kts | 334° |
| 2026-05-08 18:38 | 47.21573 | 4.01846 | 38003 ft | 437 kts | 334° |
| 2026-05-08 18:39 | 47.27191 | 3.98546 | 38002 ft | 437 kts | 334° |
| 2026-05-08 18:39 | 47.32831 | 3.95181 | 38017 ft | 437 kts | 334° |
| 2026-05-08 18:40 | 47.38465 | 3.91831 | 38007 ft | 436 kts | 334° |
| 2026-05-08 18:40 | 47.44068 | 3.88484 | 38012 ft | 436 kts | 334° |
| 2026-05-08 18:41 | 47.49700 | 3.85114 | 38018 ft | 436 kts | 334° |
| 2026-05-08 18:41 | 47.55289 | 3.81763 | 38008 ft | 435 kts | 334° |
| 2026-05-08 18:42 | 47.60912 | 3.78383 | 38014 ft | 435 kts | 334° |
| 2026-05-08 18:42 | 47.66526 | 3.75004 | 38019 ft | 435 kts | 334° |
| 2026-05-08 18:43 | 47.72136 | 3.71617 | 38022 ft | 436 kts | 334° |
| 2026-05-08 18:43 | 47.77763 | 3.68214 | 38016 ft | 434 kts | 334° |
| 2026-05-08 18:44 | 47.83364 | 3.64816 | 38021 ft | 434 kts | 334° |
| 2026-05-08 18:44 | 47.88973 | 3.61407 | 38024 ft | 434 kts | 334° |
| 2026-05-08 18:45 | 47.94524 | 3.58025 | 38025 ft | 434 kts | 334° |
| 2026-05-08 18:45 | 48.00114 | 3.54607 | 38030 ft | 433 kts | 334° |
| 2026-05-08 18:46 | 48.05685 | 3.51179 | 38029 ft | 433 kts | 334° |
| 2026-05-08 18:46 | 48.11264 | 3.47746 | 38043 ft | 433 kts | 334° |
| 2026-05-08 18:47 | 48.16845 | 3.44298 | 38037 ft | 433 kts | 334° |
| 2026-05-08 18:47 | 48.22420 | 3.40850 | 38038 ft | 433 kts | 334° |
| 2026-05-08 18:48 | 48.28009 | 3.37414 | 38038 ft | 433 kts | 334° |
| 2026-05-08 18:48 | 48.33555 | 3.34000 | 38037 ft | 433 kts | 334° |
| 2026-05-08 18:49 | 48.39128 | 3.30555 | 38061 ft | 433 kts | 334° |
| 2026-05-08 18:49 | 48.44706 | 3.27105 | 38044 ft | 432 kts | 335° |
| 2026-05-08 18:50 | 48.50270 | 3.23651 | 38039 ft | 432 kts | 334° |
| 2026-05-08 18:50 | 48.55801 | 3.20212 | 38033 ft | 432 kts | 334° |
| 2026-05-08 18:51 | 48.61357 | 3.16747 | 38063 ft | 432 kts | 335° |
| 2026-05-08 18:51 | 48.66801 | 3.13346 | 38037 ft | 432 kts | 335° |
| 2026-05-08 18:52 | 48.72358 | 3.09865 | 38041 ft | 432 kts | 335° |
| 2026-05-08 18:52 | 48.77922 | 3.06371 | 38042 ft | 432 kts | 335° |
| 2026-05-08 18:53 | 48.83475 | 3.02876 | 38046 ft | 432 kts | 334° |
| 2026-05-08 18:53 | 48.88996 | 2.99393 | 38053 ft | 432 kts | 334° |
| 2026-05-08 18:54 | 48.94561 | 2.95874 | 38066 ft | 432 kts | 334° |
| 2026-05-08 18:54 | 49.00112 | 2.92355 | 38050 ft | 432 kts | 334° |
| 2026-05-08 18:55 | 49.07504 | 2.87655 | 38056 ft | 432 kts | 335° |
| 2026-05-08 18:56 | 49.13044 | 2.84123 | 38056 ft | 431 kts | 335° |
| 2026-05-08 18:56 | 49.18583 | 2.80583 | 38054 ft | 431 kts | 335° |
| 2026-05-08 18:57 | 49.19482 | 2.80008 | 38054 ft | 431 kts | 335° |
| 2026-05-08 18:57 | 49.29572 | 2.73534 | 38061 ft | 432 kts | 335° |
| 2026-05-08 18:58 | 49.35057 | 2.70003 | 38069 ft | 432 kts | 335° |
| 2026-05-08 18:58 | 49.40598 | 2.66428 | 38054 ft | 432 kts | 334° |
| 2026-05-08 18:59 | 49.46135 | 2.62846 | 38054 ft | 431 kts | 334° |
| 2026-05-08 18:59 | 49.51642 | 2.59274 | 38066 ft | 432 kts | 335° |
| 2026-05-08 19:00 | 49.57193 | 2.55665 | 38067 ft | 432 kts | 335° |
| 2026-05-08 19:00 | 49.62734 | 2.52055 | 38072 ft | 432 kts | 334° |
| 2026-05-08 19:01 | 49.68279 | 2.48430 | 38070 ft | 432 kts | 335° |
| 2026-05-08 19:01 | 49.73783 | 2.44827 | 38059 ft | 433 kts | 335° |
| 2026-05-08 19:02 | 49.79334 | 2.41181 | 38057 ft | 433 kts | 335° |
| 2026-05-08 19:02 | 49.84877 | 2.37533 | 38053 ft | 433 kts | 335° |
| 2026-05-08 19:03 | 49.90380 | 2.33902 | 38063 ft | 433 kts | 335° |
| 2026-05-08 19:03 | 49.96390 | 2.29926 | 38078 ft | 433 kts | 335° |
| 2026-05-08 19:04 | 50.01785 | 2.26348 | 38065 ft | 433 kts | 334° |
| 2026-05-08 19:04 | 50.07296 | 2.22682 | 38065 ft | 433 kts | 334° |
| 2026-05-08 19:05 | 50.12842 | 2.18986 | 38067 ft | 433 kts | 334° |
| 2026-05-08 19:05 | 50.18381 | 2.15283 | 38083 ft | 433 kts | 334° |
| 2026-05-08 19:06 | 50.23930 | 2.11566 | 38086 ft | 434 kts | 335° |
| 2026-05-08 19:06 | 50.29481 | 2.07837 | 38081 ft | 434 kts | 334° |
| 2026-05-08 19:07 | 50.35029 | 2.04101 | 38083 ft | 434 kts | 334° |
| 2026-05-08 19:07 | 50.40114 | 1.99186 | 38096 ft | 430 kts | 317° |
| 2026-05-08 19:08 | 50.43703 | 1.93819 | 38087 ft | 429 kts | 315° |
| 2026-05-08 19:08 | 50.48883 | 1.86732 | 38083 ft | 430 kts | 319° |
| 2026-05-08 19:09 | 50.53442 | 1.80494 | 38080 ft | 428 kts | 316° |
| 2026-05-08 19:09 | 50.57897 | 1.74358 | 38085 ft | 428 kts | 317° |
| 2026-05-08 19:10 | 50.62397 | 1.68197 | 38083 ft | 428 kts | 317° |
| 2026-05-08 19:10 | 50.66887 | 1.61984 | 38091 ft | 430 kts | 317° |
| 2026-05-08 19:11 | 50.71390 | 1.55765 | 38096 ft | 430 kts | 317° |
| 2026-05-08 19:11 | 50.75886 | 1.49517 | 38096 ft | 430 kts | 317° |
| 2026-05-08 19:12 | 50.80351 | 1.43310 | 38096 ft | 429 kts | 317° |
| 2026-05-08 19:12 | 50.84833 | 1.37067 | 38098 ft | 429 kts | 316° |
| 2026-05-08 19:13 | 50.89310 | 1.30809 | 38104 ft | 430 kts | 317° |
| 2026-05-08 19:13 | 50.93791 | 1.24532 | 38104 ft | 430 kts | 316° |
| 2026-05-08 19:14 | 50.98267 | 1.18245 | 38106 ft | 430 kts | 316° |
| 2026-05-08 19:14 | 51.02740 | 1.11945 | 38105 ft | 430 kts | 316° |
| 2026-05-08 19:15 | 51.07080 | 1.05443 | 38151 ft | 427 kts | 307° |
| 2026-05-08 19:15 | 51.10856 | 0.98117 | 38113 ft | 428 kts | 308° |
| 2026-05-08 19:16 | 51.13996 | 0.92007 | 38121 ft | 428 kts | 307° |
| 2026-05-08 19:16 | 51.18381 | 0.83398 | 38134 ft | 428 kts | 307° |
| 2026-05-08 19:17 | 51.22122 | 0.76065 | 38135 ft | 429 kts | 307° |
| 2026-05-08 19:17 | 51.25875 | 0.68667 | 38146 ft | 428 kts | 307° |
| 2026-05-08 19:18 | 51.29624 | 0.61272 | 38146 ft | 429 kts | 308° |
| 2026-05-08 19:18 | 51.33802 | 0.54433 | 38120 ft | 430 kts | 314° |
| 2026-05-08 19:19 | 51.38080 | 0.47746 | 38110 ft | 430 kts | 313° |
| 2026-05-08 19:19 | 51.42357 | 0.41045 | 38110 ft | 430 kts | 313° |
| 2026-05-08 19:20 | 51.45912 | 0.35464 | 38111 ft | 430 kts | 313° |
| 2026-05-08 19:20 | 51.50852 | 0.27683 | 38111 ft | 430 kts | 313° |
| 2026-05-08 19:21 | 51.55122 | 0.20938 | 38112 ft | 430 kts | 313° |
| 2026-05-08 19:21 | 51.59390 | 0.14176 | 38106 ft | 430 kts | 313° |
| 2026-05-08 19:22 | 51.63630 | 0.07443 | 38106 ft | 430 kts | 313° |
| 2026-05-08 19:22 | 51.67889 | 0.00657 | 38105 ft | 430 kts | 313° |
| 2026-05-08 19:23 | 51.72150 | -0.06148 | 38130 ft | 431 kts | 313° |
| 2026-05-08 19:23 | 51.76725 | -0.12385 | 38132 ft | 436 kts | 326° |
| 2026-05-08 19:24 | 51.81080 | -0.16467 | 38148 ft | 436 kts | 327° |
| 2026-05-08 19:24 | 51.86286 | -0.21440 | 38105 ft | 435 kts | 326° |
| 2026-05-08 19:25 | 51.92345 | -0.27232 | 38114 ft | 435 kts | 326° |
| 2026-05-08 19:25 | 51.96712 | -0.31419 | 38104 ft | 435 kts | 326° |
| 2026-05-08 19:26 | 52.01887 | -0.36398 | 38111 ft | 435 kts | 326° |
| 2026-05-08 19:26 | 52.07099 | -0.41418 | 38100 ft | 434 kts | 326° |
| 2026-05-08 19:27 | 52.12302 | -0.46448 | 38096 ft | 434 kts | 326° |
| 2026-05-08 19:27 | 52.17471 | -0.51447 | 38097 ft | 434 kts | 326° |
| 2026-05-08 19:28 | 52.22668 | -0.56495 | 38102 ft | 435 kts | 326° |
| 2026-05-08 19:28 | 52.27864 | -0.61561 | 38103 ft | 435 kts | 326° |
| 2026-05-08 19:29 | 52.33063 | -0.66646 | 38097 ft | 435 kts | 326° |
| 2026-05-08 19:29 | 52.38252 | -0.71732 | 38101 ft | 434 kts | 326° |
| 2026-05-08 19:30 | 52.43412 | -0.76791 | 37746 ft | 429 kts | 326° |
| 2026-05-08 19:30 | 52.45965 | -0.79304 | 37166 ft | 428 kts | 326° |
| 2026-05-08 19:30 | 52.48519 | -0.81822 | 36602 ft | 427 kts | 325° |
| 2026-05-08 19:30 | 52.51025 | -0.84293 | 36054 ft | 425 kts | 325° |
| 2026-05-08 19:31 | 52.53562 | -0.86797 | 35487 ft | 424 kts | 325° |
| 2026-05-08 19:31 | 52.56091 | -0.89299 | 34913 ft | 423 kts | 325° |
| 2026-05-08 19:31 | 52.58616 | -0.91800 | 34330 ft | 422 kts | 325° |
| 2026-05-08 19:31 | 52.61130 | -0.94293 | 33685 ft | 421 kts | 325° |
| 2026-05-08 19:32 | 52.63643 | -0.96788 | 33093 ft | 419 kts | 325° |
| 2026-05-08 19:32 | 52.66142 | -0.99275 | 32474 ft | 418 kts | 325° |
| 2026-05-08 19:32 | 52.68635 | -1.01761 | 31862 ft | 421 kts | 324° |
| 2026-05-08 19:32 | 52.71152 | -1.04274 | 31235 ft | 423 kts | 324° |
| 2026-05-08 19:33 | 52.73636 | -1.06753 | 30650 ft | 423 kts | 324° |
| 2026-05-08 19:33 | 52.76157 | -1.09274 | 30021 ft | 422 kts | 324° |
| 2026-05-08 19:33 | 52.78666 | -1.11787 | 29354 ft | 420 kts | 324° |
| 2026-05-08 19:33 | 52.81153 | -1.14284 | 28748 ft | 417 kts | 324° |
| 2026-05-08 19:34 | 52.83625 | -1.16767 | 28147 ft | 414 kts | 324° |
| 2026-05-08 19:34 | 52.86084 | -1.19240 | 27520 ft | 412 kts | 324° |
| 2026-05-08 19:34 | 52.88495 | -1.21670 | 26933 ft | 410 kts | 324° |
| 2026-05-08 19:34 | 52.90931 | -1.24126 | 26335 ft | 409 kts | 324° |
| 2026-05-08 19:35 | 52.92571 | -1.25783 | 25925 ft | 408 kts | 324° |
| 2026-05-08 19:35 | 52.95777 | -1.29018 | 25137 ft | 407 kts | 327° |
| 2026-05-08 19:35 | 52.98430 | -1.30831 | 24542 ft | 411 kts | 339° |
| 2026-05-08 19:35 | 53.01161 | -1.32100 | 23957 ft | 412 kts | 342° |
| 2026-05-08 19:36 | 53.03941 | -1.33304 | 23297 ft | 412 kts | 341° |
| 2026-05-08 19:36 | 53.06673 | -1.34680 | 22698 ft | 408 kts | 339° |
| 2026-05-08 19:36 | 53.09366 | -1.36122 | 22103 ft | 406 kts | 339° |
| 2026-05-08 19:36 | 53.12066 | -1.37489 | 21512 ft | 404 kts | 341° |
| 2026-05-08 19:37 | 53.14751 | -1.38791 | 20942 ft | 401 kts | 341° |
| 2026-05-08 19:37 | 53.17423 | -1.40118 | 20354 ft | 399 kts | 340° |
| 2026-05-08 19:37 | 53.20071 | -1.41470 | 19781 ft | 397 kts | 340° |
| 2026-05-08 19:37 | 53.22709 | -1.42811 | 19209 ft | 396 kts | 340° |
| 2026-05-08 19:38 | 53.25339 | -1.44130 | 18650 ft | 394 kts | 340° |
| 2026-05-08 19:38 | 53.27953 | -1.45443 | 17838 ft | 386 kts | 340° |
| 2026-05-08 19:38 | 53.30410 | -1.46679 | 16867 ft | 361 kts | 340° |
| 2026-05-08 19:38 | 53.32746 | -1.47863 | 15963 ft | 341 kts | 340° |
| 2026-05-08 19:39 | 53.34973 | -1.48997 | 15131 ft | 328 kts | 340° |
| 2026-05-08 19:39 | 53.37138 | -1.50100 | 14368 ft | 329 kts | 340° |
| 2026-05-08 19:39 | 53.39375 | -1.51243 | 13571 ft | 333 kts | 340° |
| 2026-05-08 19:39 | 53.41542 | -1.52336 | 12719 ft | 317 kts | 340° |
| 2026-05-08 19:40 | 53.43607 | -1.53379 | 11923 ft | 301 kts | 342° |
| 2026-05-08 19:40 | 53.45614 | -1.53988 | 11194 ft | 288 kts | 351° |
| 2026-05-08 19:40 | 53.47571 | -1.54370 | 10503 ft | 278 kts | 351° |
| 2026-05-08 19:40 | 53.49467 | -1.54738 | 9821 ft | 269 kts | 351° |
| 2026-05-08 19:41 | 53.51303 | -1.55109 | 9140 ft | 263 kts | 352° |
| 2026-05-08 19:41 | 53.53105 | -1.55476 | 8479 ft | 258 kts | 352° |
| 2026-05-08 19:41 | 53.54829 | -1.55822 | 8304 ft | 237 kts | 352° |
| 2026-05-08 19:41 | 53.56373 | -1.56058 | 8200 ft | 216 kts | 6° |
| 2026-05-08 19:42 | 53.57684 | -1.55074 | 8077 ft | 207 kts | 54° |
| 2026-05-08 19:42 | 53.58097 | -1.52940 | 8214 ft | 191 kts | 103° |
| 2026-05-08 19:42 | 53.57779 | -1.51596 | 8283 ft | 187 kts | 130° |
| 2026-05-08 19:42 | 53.56340 | -1.50292 | 8382 ft | 177 kts | 175° |
| 2026-05-08 19:43 | 53.55104 | -1.50106 | 8394 ft | 179 kts | 177° |
| 2026-05-08 19:43 | 53.53861 | -1.49906 | 8140 ft | 180 kts | 175° |
| 2026-05-08 19:43 | 53.52624 | -1.49662 | 7881 ft | 178 kts | 175° |
| 2026-05-08 19:43 | 53.51392 | -1.49435 | 7625 ft | 176 kts | 180° |
| 2026-05-08 19:44 | 53.50278 | -1.50080 | 7392 ft | 173 kts | 219° |
| 2026-05-08 19:44 | 53.49687 | -1.51802 | 7153 ft | 177 kts | 259° |
| 2026-05-08 19:44 | 53.49933 | -1.53818 | 6890 ft | 184 kts | 302° |
| 2026-05-08 19:44 | 53.50973 | -1.55053 | 6639 ft | 189 kts | 348° |
| 2026-05-08 19:45 | 53.52280 | -1.55362 | 6393 ft | 191 kts | 354° |
| 2026-05-08 19:45 | 53.53613 | -1.55587 | 6131 ft | 193 kts | 354° |
| 2026-05-08 19:45 | 53.54948 | -1.55841 | 5868 ft | 193 kts | 353° |
| 2026-05-08 19:45 | 53.56284 | -1.56027 | 5610 ft | 192 kts | 8° |
| 2026-05-08 19:46 | 53.57557 | -1.55629 | 5456 ft | 187 kts | 12° |
| 2026-05-08 19:46 | 53.58804 | -1.55227 | 5243 ft | 177 kts | 11° |
| 2026-05-08 19:46 | 53.61205 | -1.54465 | 5085 ft | 176 kts | 11° |
| 2026-05-08 19:47 | 53.62403 | -1.54084 | 4987 ft | 174 kts | 12° |
| 2026-05-08 19:47 | 53.63602 | -1.53702 | 4905 ft | 179 kts | 11° |
| 2026-05-08 19:47 | 53.64856 | -1.53303 | 4766 ft | 185 kts | 12° |
| 2026-05-08 19:47 | 53.66102 | -1.52848 | 4605 ft | 181 kts | 22° |
| 2026-05-08 19:48 | 53.67069 | -1.51567 | 4498 ft | 179 kts | 49° |
| 2026-05-08 19:48 | 53.67921 | -1.50064 | 4389 ft | 179 kts | 49° |
| 2026-05-08 19:48 | 53.68781 | -1.48543 | 4280 ft | 178 kts | 49° |
| 2026-05-08 19:48 | 53.69070 | -1.48032 | 4242 ft | 178 kts | 49° |
| 2026-05-08 19:49 | 53.70490 | -1.45533 | 4062 ft | 177 kts | 49° |
| 2026-05-08 19:49 | 53.71507 | -1.44461 | 3949 ft | 171 kts | 14° |
| 2026-05-08 19:49 | 53.72657 | -1.44695 | 3843 ft | 171 kts | 327° |
| 2026-05-08 19:49 | 53.73494 | -1.46008 | 3753 ft | 158 kts | 317° |
| 2026-05-08 19:50 | 53.74309 | -1.47222 | 3638 ft | 155 kts | 318° |
| 2026-05-08 19:50 | 53.75106 | -1.48438 | 3545 ft | 155 kts | 317° |
| 2026-05-08 19:50 | 53.75907 | -1.49668 | 3381 ft | 154 kts | 318° |
| 2026-05-08 19:50 | 53.76678 | -1.50853 | 3181 ft | 151 kts | 318° |
| 2026-05-08 19:51 | 53.77458 | -1.52046 | 2973 ft | 151 kts | 319° |
| 2026-05-08 19:51 | 53.77720 | -1.52440 | 2904 ft | 151 kts | 319° |
| 2026-05-08 19:51 | 53.78748 | -1.54017 | 2630 ft | 150 kts | 319° |
| 2026-05-08 19:51 | 53.79782 | -1.55607 | 2363 ft | 150 kts | 320° |
| 2026-05-08 19:52 | 53.80552 | -1.56785 | 2169 ft | 149 kts | 321° |
| 2026-05-08 19:52 | 53.81317 | -1.57952 | 1975 ft | 148 kts | 320° |
| 2026-05-08 19:52 | 53.82085 | -1.59131 | 1762 ft | 148 kts | 320° |
| 2026-05-08 19:52 | 53.82847 | -1.60302 | 1550 ft | 147 kts | 320° |
| 2026-05-08 19:53 | 53.83595 | -1.61454 | 1359 ft | 144 kts | 320° |
| 2026-05-08 19:53 | 53.84330 | -1.62581 | 1159 ft | 141 kts | 320° |
| 2026-05-08 19:53 | 53.85055 | -1.63688 | 957 ft | 140 kts | 319° |
| 2026-05-08 19:53 | 53.85772 | -1.64801 | 762 ft | 139 kts | 318° |
| 2026-05-08 19:54 | 53.86465 | -1.65865 | 664 ft | 117 kts | 318° |
| 2026-05-08 19:54 | 53.86875 | -1.66491 | 674 ft | 48 kts | 316° |
| 2026-05-08 19:54 | 53.86998 | -1.66684 | 672 ft | 2 kts | 319° |
| 2026-05-08 19:54 | 53.87011 | -1.66703 | 673 ft | 9 kts | 319° |
| 2026-05-08 19:55 | 53.87100 | -1.66840 | 675 ft | 26 kts | 317° |
| 2026-05-08 19:55 | 53.87208 | -1.66990 | 681 ft | 14 kts | 342° |
| 2026-05-08 19:55 | 53.87290 | -1.66998 | 683 ft | 11 kts | 358° |
| 2026-05-08 19:55 | 53.87357 | -1.66992 | 685 ft | 9 kts | 356° |
| 2026-05-08 19:56 | 53.87399 | -1.67044 | 681 ft | 7 kts | 295° |
| 2026-05-08 19:56 | 53.87381 | -1.67148 | 681 ft | 13 kts | 229° |
| 2026-05-08 19:56 | 53.87290 | -1.67132 | 681 ft | 16 kts | 137° |
| 2026-05-08 19:56 | 53.87201 | -1.66997 | 681 ft | 18 kts | 138° |
| 2026-05-08 19:57 | 53.87097 | -1.66836 | 675 ft | 22 kts | 138° |
| 2026-05-08 19:57 | 53.86988 | -1.66666 | 672 ft | 15 kts | 138° |
| 2026-05-08 19:57 | 53.86947 | -1.66583 | 672 ft | 2 kts | 79° |
| 2026-05-08 19:57 | 53.86961 | -1.66561 | 672 ft | 6 kts | 42° |
| 2026-05-08 19:58 | 53.86998 | -1.66501 | 674 ft | 8 kts | 52° |
| 2026-05-08 19:58 | 53.86993 | -1.66436 | 676 ft | 7 kts | 112° |
| 2026-05-08 19:58 | 53.86963 | -1.66340 | 676 ft | 12 kts | 118° |
| 2026-05-08 19:58 | 53.86908 | -1.66229 | 675 ft | 13 kts | 137° |
| 2026-05-08 19:59 | 53.86841 | -1.66129 | 675 ft | 13 kts | 141° |
| 2026-05-08 19:59 | 53.86815 | -1.65987 | 672 ft | 14 kts | 90° |
| 2026-05-08 19:59 | 53.86828 | -1.65912 | 667 ft | 3 kts | 21° |
| 2026-05-08 19:59 | 53.86856 | -1.65908 | 669 ft | 4 kts | 1° |
| 2026-05-08 20:00 | 53.86859 | -1.65908 | 669 ft | 0 kts | 1° |